createdAt,value
2022-11-08T00:02:24.220Z,1.15
2022-11-08T00:04:51.374Z,1.17
2022-11-08T00:07:36.860Z,1.65
2022-11-08T00:10:22.970Z,1.40
2022-11-08T00:13:08.625Z,1.50
2022-11-08T00:15:38.570Z,1.73
2022-11-08T00:18:07.506Z,1.02
2022-11-08T00:20:34.757Z,1.48
2022-11-08T00:23:01.849Z,1.42
2022-11-08T00:25:28.934Z,1.95
2022-11-08T00:27:55.934Z,1.10
2022-11-08T00:30:22.933Z,1.35
2022-11-08T00:32:49.932Z,1.40
2022-11-08T00:35:16.926Z,1.73
2022-11-08T00:37:43.991Z,1.30
2022-11-08T00:40:12.000Z,1.17
2022-11-08T00:42:38.989Z,2.28
2022-11-08T00:45:06.384Z,0.95
2022-11-08T00:47:33.685Z,1.55
2022-11-08T00:50:00.737Z,1.40
2022-11-08T00:52:27.779Z,1.63
2022-11-08T00:54:54.785Z,1.00
2022-11-08T00:57:27.522Z,1.30
2022-11-08T01:00:08.842Z,1.08
2022-11-08T01:02:35.948Z,1.00
2022-11-08T01:05:03.058Z,1.05
2022-11-08T01:07:30.111Z,1.65
2022-11-08T01:09:57.078Z,1.30
2022-11-08T01:12:24.071Z,1.42
2022-11-08T01:14:51.049Z,1.83
2022-11-08T01:17:18.078Z,1.55
2022-11-08T01:19:45.057Z,2.00
2022-11-08T01:22:12.136Z,2.63
2022-11-08T01:24:39.120Z,0.98
2022-11-08T01:27:06.184Z,1.20
2022-11-08T01:29:33.352Z,1.20
2022-11-08T01:32:00.352Z,2.20
2022-11-08T01:34:27.341Z,1.27
2022-11-08T01:36:54.353Z,1.33
2022-11-08T01:39:21.319Z,1.75
2022-11-08T01:41:48.309Z,1.42
2022-11-08T01:44:17.222Z,1.13
2022-11-08T01:46:47.100Z,1.27
2022-11-08T01:49:26.264Z,1.77
2022-11-08T01:52:11.732Z,2.20
2022-11-08T01:54:57.159Z,1.13
2022-11-08T01:57:50.313Z,1.65
2022-11-08T02:00:18.143Z,1.13
2022-11-08T02:02:51.519Z,1.77
2022-11-08T02:05:25.825Z,1.80
2022-11-08T02:08:05.041Z,2.08
2022-11-08T02:10:37.858Z,3.45
2022-11-08T02:13:13.330Z,4.03
2022-11-08T02:15:42.753Z,7.22
2022-11-08T02:18:10.616Z,8.98
2022-11-08T02:20:37.806Z,16.73
2022-11-08T02:23:26.700Z,8.70
2022-11-08T02:25:53.831Z,6.68
2022-11-08T02:28:21.367Z,6.25
2022-11-08T02:30:48.538Z,4.55
2022-11-08T02:33:23.036Z,4.13
2022-11-08T02:35:54.012Z,4.90
2022-11-08T02:38:22.156Z,6.72
2022-11-08T02:40:54.079Z,5.00
2022-11-08T02:43:22.243Z,3.92
2022-11-08T02:45:50.142Z,4.07
2022-11-08T02:48:18.213Z,3.35
2022-11-08T02:50:46.591Z,3.22
2022-11-08T02:53:13.864Z,3.05
2022-11-08T02:55:41.392Z,2.58
2022-11-08T02:58:08.721Z,2.22
2022-11-08T03:00:35.782Z,1.75
2022-11-08T03:03:02.909Z,2.75
2022-11-08T03:05:30.530Z,1.73
2022-11-08T03:07:57.742Z,1.73
2022-11-08T03:10:26.914Z,2.22
2022-11-08T03:13:03.183Z,2.88
2022-11-08T03:15:30.385Z,1.58
2022-11-08T03:17:58.681Z,1.75
2022-11-08T03:20:32.108Z,1.85
2022-11-08T03:23:06.824Z,2.08
2022-11-08T03:25:34.672Z,2.35
2022-11-08T03:28:06.965Z,1.83
2022-11-08T03:30:35.031Z,2.03
2022-11-08T03:33:02.529Z,2.30
2022-11-08T03:35:29.515Z,2.42
2022-11-08T03:37:57.960Z,2.08
2022-11-08T03:40:25.458Z,2.08
2022-11-08T03:42:52.980Z,2.10
2022-11-08T03:45:20.014Z,4.97
2022-11-08T03:47:47.271Z,3.25
2022-11-08T03:50:16.354Z,2.45
2022-11-08T03:52:51.894Z,2.63
2022-11-08T03:55:21.260Z,2.58
2022-11-08T03:57:49.873Z,2.45
2022-11-08T04:00:20.065Z,2.63
2022-11-08T04:02:47.752Z,2.40
2022-11-08T04:05:15.740Z,2.63
2022-11-08T04:07:43.205Z,3.38
2022-11-08T04:10:11.717Z,2.60
2022-11-08T04:12:59.547Z,3.05
2022-11-08T04:15:27.909Z,2.47
2022-11-08T04:18:14.023Z,2.65
2022-11-08T04:21:04.830Z,2.30
2022-11-08T04:23:33.789Z,3.22
2022-11-08T04:26:03.583Z,3.08
2022-11-08T04:28:32.634Z,3.00
2022-11-08T04:31:03.263Z,2.67
2022-11-08T04:33:30.725Z,2.47
2022-11-08T04:36:01.997Z,2.50
2022-11-08T04:38:30.445Z,2.75
2022-11-08T04:41:09.813Z,3.20
2022-11-08T04:43:36.810Z,2.92
2022-11-08T04:46:07.133Z,2.78
2022-11-08T04:48:34.361Z,3.10
2022-11-08T04:51:03.569Z,4.10
2022-11-08T04:53:30.596Z,3.47
2022-11-08T04:56:06.275Z,3.45
2022-11-08T04:58:39.308Z,4.60
2022-11-08T05:01:08.097Z,4.47
2022-11-08T05:03:35.383Z,5.93
2022-11-08T05:06:03.968Z,4.95
2022-11-08T05:08:31.265Z,5.78
2022-11-08T05:11:03.431Z,4.97
2022-11-08T05:13:31.177Z,5.32
2022-11-08T05:16:03.571Z,6.38
2022-11-08T05:18:31.721Z,5.55
2022-11-08T05:21:19.125Z,5.55
2022-11-08T05:23:49.348Z,6.93
2022-11-08T05:26:18.003Z,6.05
2022-11-08T05:28:45.285Z,7.50
2022-11-08T05:31:12.473Z,7.68
2022-11-08T05:33:39.462Z,7.20
2022-11-08T05:36:12.528Z,8.52
2022-11-08T05:38:40.437Z,9.05
2022-11-08T05:41:16.431Z,6.60
2022-11-08T05:43:46.286Z,6.30
2022-11-08T05:46:13.784Z,6.65
2022-11-08T05:48:42.839Z,7.00
2022-11-08T05:51:13.187Z,7.15
2022-11-08T05:53:41.238Z,7.43
2022-11-08T05:56:08.979Z,6.32
2022-11-08T05:58:36.494Z,5.28
2022-11-08T06:01:09.452Z,6.35
2022-11-08T06:03:36.616Z,5.40
2022-11-08T06:06:19.033Z,5.15
2022-11-08T06:08:50.235Z,5.53
2022-11-08T06:11:24.059Z,4.85
2022-11-08T06:13:52.611Z,4.80
2022-11-08T06:16:21.050Z,4.03
2022-11-08T06:18:48.599Z,3.47
2022-11-08T06:21:20.371Z,4.53
2022-11-08T06:23:48.009Z,5.47
2022-11-08T06:26:15.045Z,4.63
2022-11-08T06:28:42.016Z,4.93
2022-11-08T06:31:09.086Z,3.63
2022-11-08T06:33:36.741Z,3.58
2022-11-08T06:36:03.941Z,3.83
2022-11-08T06:38:30.983Z,3.85
2022-11-08T06:41:02.130Z,4.63
2022-11-08T06:43:29.235Z,5.32
2022-11-08T06:46:00.349Z,7.68
2022-11-08T06:48:32.371Z,4.40
2022-11-08T06:51:02.693Z,4.22
2022-11-08T06:53:29.977Z,4.90
2022-11-08T06:55:59.269Z,3.50
2022-11-08T06:58:26.252Z,2.88
2022-11-08T07:00:53.256Z,3.83
2022-11-08T07:03:20.585Z,3.40
2022-11-08T07:05:47.889Z,2.53
2022-11-08T07:08:15.400Z,3.28
2022-11-08T07:10:44.684Z,1.88
2022-11-08T07:13:12.946Z,2.13
2022-11-08T07:15:41.183Z,1.83
2022-11-08T07:18:11.115Z,2.28
2022-11-08T07:20:39.638Z,2.03
2022-11-08T07:23:06.936Z,2.08
2022-11-08T07:25:34.296Z,2.42
2022-11-08T07:28:04.007Z,2.78
2022-11-08T07:30:32.040Z,2.20
2022-11-08T07:32:59.386Z,2.33
2022-11-08T07:35:27.675Z,2.15
2022-11-08T07:37:55.300Z,1.40
2022-11-08T07:40:22.863Z,1.75
2022-11-08T07:43:10.700Z,1.67
2022-11-08T07:45:37.398Z,1.42
2022-11-08T07:48:11.560Z,2.05
2022-11-08T07:50:43.544Z,2.35
2022-11-08T07:53:10.664Z,3.08
2022-11-08T07:55:39.144Z,2.92
2022-11-08T07:58:06.817Z,2.40
2022-11-08T08:00:36.913Z,2.30
2022-11-08T08:03:06.175Z,2.10
2022-11-08T08:05:36.161Z,1.60
2022-11-08T08:08:03.883Z,2.22
2022-11-08T08:10:32.083Z,2.08
2022-11-08T08:12:59.200Z,2.10
2022-11-08T08:15:26.409Z,2.10
2022-11-08T08:17:53.475Z,2.30
2022-11-08T08:20:20.450Z,2.05
2022-11-08T08:22:49.276Z,1.83
2022-11-08T08:25:17.333Z,2.47
2022-11-08T08:27:48.517Z,3.15
2022-11-08T08:30:16.022Z,1.50
2022-11-08T08:32:43.708Z,1.92
2022-11-08T08:35:11.488Z,1.42
2022-11-08T08:37:38.850Z,1.42
2022-11-08T08:40:07.446Z,1.05
2022-11-08T08:42:34.488Z,1.35
2022-11-08T08:45:01.824Z,1.33
2022-11-08T08:47:28.948Z,1.73
2022-11-08T08:49:55.920Z,2.10
2022-11-08T08:52:22.897Z,1.70
2022-11-08T08:54:50.016Z,1.15
2022-11-08T08:57:17.005Z,0.90
2022-11-08T09:02:30.956Z,0.93
2022-11-08T09:04:59.004Z,1.50
2022-11-08T09:07:25.998Z,1.40
2022-11-08T09:09:53.041Z,1.33
2022-11-08T09:12:20.079Z,1.02
2022-11-08T09:14:47.050Z,1.23
2022-11-08T09:17:14.070Z,0.95
2022-11-08T09:19:41.093Z,1.15
2022-11-08T09:22:08.225Z,1.42
2022-11-08T09:24:35.249Z,1.30
2022-11-08T09:27:03.843Z,1.02
2022-11-08T09:29:31.910Z,1.13
2022-11-08T09:31:59.733Z,1.27
2022-11-08T09:34:27.454Z,1.92
2022-11-08T09:36:55.086Z,1.88
2022-11-08T09:39:22.131Z,2.17
2022-11-08T09:42:12.270Z,1.88
2022-11-08T09:44:45.084Z,1.75
2022-11-08T09:47:22.247Z,1.52
2022-11-08T09:50:12.986Z,1.75
2022-11-08T09:52:42.372Z,1.52
2022-11-08T09:55:37.694Z,2.28
2022-11-08T09:58:18.840Z,1.58
2022-11-08T10:00:46.124Z,1.85
2022-11-08T10:03:16.736Z,1.45
2022-11-08T10:06:01.946Z,1.98
2022-11-08T10:08:40.752Z,1.77
2022-11-08T10:11:28.214Z,2.08
2022-11-08T10:14:11.708Z,1.52
2022-11-08T10:17:19.674Z,1.67
2022-11-08T10:20:06.366Z,1.40
2022-11-08T10:22:34.045Z,1.10
2022-11-08T10:25:02.879Z,1.17
2022-11-08T10:27:38.205Z,1.48
2022-11-08T10:30:17.865Z,1.50
2022-11-08T10:32:50.566Z,1.15
2022-11-08T10:38:08.284Z,2.00
2022-11-08T10:40:42.930Z,1.77
2022-11-08T10:43:32.218Z,1.92
2022-11-08T10:45:59.291Z,1.17
2022-11-08T10:48:26.400Z,1.58
2022-11-08T10:50:53.939Z,1.60
2022-11-08T10:53:28.796Z,1.58
2022-11-08T10:56:04.624Z,0.90
2022-11-08T10:58:42.030Z,1.48
2022-11-08T11:01:23.190Z,2.22
2022-11-08T11:03:52.452Z,1.00
2022-11-08T11:06:30.627Z,1.27
2022-11-08T11:09:00.534Z,0.95
2022-11-08T11:11:37.178Z,1.23
2022-11-08T11:14:11.857Z,1.23
2022-11-08T11:17:17.971Z,1.27
2022-11-08T11:22:33.594Z,1.80
2022-11-08T11:25:16.769Z,0.90
2022-11-08T11:27:47.844Z,0.90
2022-11-08T11:30:22.652Z,0.93
2022-11-08T11:33:24.105Z,1.42
2022-11-08T11:36:14.367Z,1.00
2022-11-08T11:38:51.156Z,0.93
2022-11-08T11:42:31.262Z,0.98
2022-11-08T11:45:05.500Z,1.10
2022-11-08T11:47:44.454Z,1.10
2022-11-08T11:50:27.880Z,0.80
2022-11-08T11:52:56.800Z,0.93
2022-11-08T11:55:48.671Z,1.20
2022-11-08T11:58:48.836Z,0.80
2022-11-08T12:01:41.446Z,1.63
2022-11-08T12:04:46.054Z,1.13
2022-11-08T12:07:15.706Z,0.98
2022-11-08T12:09:51.826Z,0.90
2022-11-08T12:13:00.741Z,1.35
2022-11-08T12:15:30.480Z,1.25
2022-11-08T12:18:09.408Z,1.73
2022-11-08T12:20:48.342Z,1.70
2022-11-08T12:23:27.287Z,1.30
2022-11-08T12:26:08.731Z,1.65
2022-11-08T12:28:57.636Z,1.30
2022-11-08T12:31:33.826Z,1.00
2022-11-08T12:34:01.925Z,1.73
2022-11-08T12:36:40.478Z,0.95
2022-11-08T12:39:23.537Z,1.70
2022-11-08T12:42:28.350Z,1.10
2022-11-08T12:45:32.913Z,1.10
2022-11-08T12:48:12.119Z,0.73
2022-11-08T12:50:47.923Z,1.23
2022-11-08T12:53:59.829Z,0.90
2022-11-08T12:56:41.898Z,1.15
2022-11-08T12:59:19.565Z,0.80
2022-11-08T13:01:47.386Z,0.80
2022-11-08T13:04:38.579Z,0.85
2022-11-08T13:07:28.101Z,1.23
2022-11-08T13:10:12.799Z,1.00
2022-11-08T13:12:56.950Z,1.23
2022-11-08T13:15:25.314Z,1.02
2022-11-08T13:18:16.392Z,0.75
2022-11-08T13:20:46.783Z,1.10
2022-11-08T13:23:16.205Z,1.02
2022-11-08T13:25:44.376Z,1.30
2022-11-08T13:28:44.800Z,1.02
2022-11-08T13:31:29.722Z,1.60
2022-11-08T13:34:06.905Z,1.45
2022-11-08T13:36:43.944Z,1.70
2022-11-08T13:39:32.951Z,0.98
2022-11-08T13:42:24.794Z,1.15
2022-11-08T13:44:54.491Z,1.08
2022-11-08T13:47:33.321Z,1.05
2022-11-08T13:50:34.317Z,1.02
2022-11-08T13:53:01.429Z,3.00
2022-11-08T13:55:43.676Z,1.27
2022-11-08T13:58:34.324Z,1.23
2022-11-08T14:01:05.582Z,1.17
2022-11-08T14:03:32.586Z,1.65
2022-11-08T14:06:05.409Z,1.33
2022-11-08T14:08:38.150Z,2.38
2022-11-08T14:11:44.931Z,1.38
2022-11-08T14:14:17.988Z,1.45
2022-11-08T14:17:08.389Z,1.20
2022-11-08T14:19:39.436Z,1.58
2022-11-08T14:22:20.122Z,2.10
2022-11-08T14:24:48.012Z,1.98
2022-11-08T14:27:31.758Z,2.53
2022-11-08T14:30:00.322Z,12.77
2022-11-08T14:32:27.468Z,6.18
2022-11-08T14:35:30.380Z,4.32
2022-11-08T14:37:57.658Z,2.55
2022-11-08T14:40:28.085Z,0.90
2022-11-08T14:42:56.169Z,1.25
2022-11-08T14:45:28.010Z,0.70
2022-11-08T14:48:04.317Z,1.35
2022-11-08T14:50:33.708Z,1.48
2022-11-08T14:53:20.757Z,2.17
2022-11-08T14:55:47.982Z,1.50
2022-11-08T14:58:17.161Z,1.33
2022-11-08T15:00:46.968Z,1.00
2022-11-08T15:03:17.542Z,0.93
2022-11-08T15:05:54.274Z,1.40
2022-11-08T15:08:31.529Z,1.40
2022-11-08T15:11:07.710Z,2.15
2022-11-08T15:13:51.601Z,2.17
2022-11-08T15:16:18.623Z,2.13
2022-11-08T15:18:45.589Z,1.90
2022-11-08T15:21:13.515Z,1.35
2022-11-08T15:23:47.974Z,1.20
2022-11-08T15:26:30.745Z,1.15
2022-11-08T15:29:07.438Z,1.23
2022-11-08T15:31:40.552Z,1.55
2022-11-08T15:34:25.750Z,0.85
2022-11-08T15:36:53.423Z,1.30
2022-11-08T15:39:24.063Z,1.08
2022-11-08T15:42:12.238Z,1.23
2022-11-08T15:44:58.789Z,1.30
2022-11-08T15:47:43.649Z,1.60
2022-11-08T15:50:24.773Z,1.20
2022-11-08T15:52:54.973Z,1.60
2022-11-08T15:55:26.152Z,1.48
2022-11-08T15:57:54.436Z,1.02
2022-11-08T16:00:28.035Z,1.30
2022-11-08T16:02:55.723Z,1.33
2022-11-08T16:05:26.117Z,1.73
2022-11-08T16:07:54.141Z,1.48
2022-11-08T16:10:31.326Z,1.92
2022-11-08T16:13:00.733Z,2.47
2022-11-08T16:15:32.045Z,1.80
2022-11-08T16:18:00.489Z,1.85
2022-11-08T16:20:32.991Z,2.03
2022-11-08T16:23:02.650Z,2.00
2022-11-08T16:25:34.067Z,2.42
2022-11-08T16:28:08.533Z,2.13
2022-11-08T16:30:36.094Z,1.80
2022-11-08T16:33:18.609Z,1.98
2022-11-08T16:35:45.764Z,1.90
2022-11-08T16:38:12.797Z,1.45
2022-11-08T16:40:42.876Z,1.90
2022-11-08T16:43:11.679Z,1.67
2022-11-08T16:46:03.878Z,2.20
2022-11-08T16:48:27.210Z,2.65
2022-11-08T16:51:03.603Z,3.38
2022-11-08T16:53:30.682Z,4.07
2022-11-08T16:55:57.904Z,4.35
2022-11-08T16:58:26.065Z,3.58
2022-11-08T17:00:53.281Z,3.55
2022-11-08T17:03:23.056Z,3.35
2022-11-08T17:05:50.574Z,3.00
2022-11-08T17:08:17.884Z,3.75
2022-11-08T17:10:45.229Z,2.90
2022-11-08T17:13:16.477Z,2.40
2022-11-08T17:15:44.639Z,1.83
2022-11-08T17:18:13.939Z,2.53
2022-11-08T17:20:41.750Z,2.33
2022-11-08T17:23:09.759Z,2.33
2022-11-08T17:25:38.109Z,3.03
2022-11-08T17:28:05.184Z,2.55
2022-11-08T17:30:32.496Z,2.97
2022-11-08T17:32:59.478Z,2.53
2022-11-08T17:35:26.487Z,3.03
2022-11-08T17:37:53.640Z,3.38
2022-11-08T17:40:20.657Z,3.03
2022-11-08T17:42:47.637Z,2.40
2022-11-08T17:45:14.695Z,2.70
2022-11-08T17:47:41.773Z,2.40
2022-11-08T17:50:09.875Z,2.40
2022-11-08T17:52:36.931Z,2.33
2022-11-08T17:55:04.853Z,2.70
2022-11-08T17:57:31.849Z,3.22
2022-11-08T17:59:58.944Z,2.45
2022-11-08T18:02:27.421Z,3.13
2022-11-08T18:04:55.885Z,2.50
2022-11-08T18:07:22.937Z,1.77
2022-11-08T18:09:49.963Z,2.33
2022-11-08T18:12:17.021Z,1.88
2022-11-08T18:14:43.975Z,2.05
2022-11-08T18:17:10.985Z,1.30
2022-11-08T18:19:37.980Z,1.45
2022-11-08T18:22:05.098Z,1.83
2022-11-08T18:24:32.075Z,1.85
2022-11-08T18:26:59.292Z,1.95
2022-11-08T18:29:26.267Z,2.08
2022-11-08T18:31:53.264Z,2.15
2022-11-08T18:34:20.386Z,2.80
2022-11-08T18:36:49.111Z,2.00
2022-11-08T18:39:19.393Z,2.05
2022-11-08T18:41:47.217Z,1.83
2022-11-08T18:44:14.443Z,2.47
2022-11-08T18:46:43.427Z,2.40
2022-11-08T18:49:11.145Z,1.30
2022-11-08T18:51:38.210Z,1.20
2022-11-08T18:54:05.280Z,1.88
2022-11-08T18:56:32.466Z,1.85
2022-11-08T18:58:59.524Z,2.30
2022-11-08T19:01:26.598Z,1.60
2022-11-08T19:03:53.607Z,1.33
2022-11-08T19:06:20.605Z,1.65
2022-11-08T19:08:47.668Z,1.52
2022-11-08T19:11:15.211Z,1.10
2022-11-08T19:13:42.256Z,1.45
2022-11-08T19:16:13.568Z,1.25
2022-11-08T19:18:42.146Z,1.00
2022-11-08T19:21:35.424Z,1.63
2022-11-08T19:24:03.957Z,1.90
2022-11-08T19:26:31.001Z,1.70
2022-11-08T19:28:58.085Z,1.65
2022-11-08T19:31:25.568Z,1.83
2022-11-08T19:33:54.309Z,1.88
2022-11-08T19:36:26.913Z,3.25
2022-11-08T19:41:24.278Z,1.77
2022-11-08T19:43:51.910Z,1.40
2022-11-08T19:46:30.048Z,1.20
2022-11-08T19:48:59.922Z,2.13
2022-11-08T19:51:29.469Z,1.50
2022-11-08T19:53:59.420Z,2.25
2022-11-08T19:56:50.024Z,1.63
2022-11-08T19:59:14.984Z,1.55
2022-11-08T20:01:42.142Z,1.95
2022-11-08T20:04:11.213Z,1.83
2022-11-08T20:06:38.785Z,1.80
2022-11-08T20:09:06.713Z,2.03
2022-11-08T20:11:36.509Z,2.13
2022-11-08T20:14:04.787Z,1.63
2022-11-08T20:16:35.961Z,2.42
2022-11-08T20:19:09.861Z,1.67
2022-11-08T20:21:40.559Z,1.80
2022-11-08T20:24:09.615Z,1.40
2022-11-08T20:26:38.390Z,1.73
2022-11-08T20:29:07.034Z,1.25
2022-11-08T20:31:34.971Z,2.03
2022-11-08T20:34:05.642Z,2.30
2022-11-08T20:36:35.386Z,1.98
2022-11-08T20:39:07.333Z,1.60
2022-11-08T20:41:37.486Z,2.03
2022-11-08T20:44:06.351Z,2.70
2022-11-08T20:46:34.502Z,2.78
2022-11-08T20:49:02.158Z,2.60
2022-11-08T20:51:30.619Z,2.85
2022-11-08T20:53:59.181Z,3.35
2022-11-08T20:56:27.629Z,4.50
2022-11-08T20:58:54.724Z,3.55
2022-11-08T21:01:27.890Z,3.58
2022-11-08T21:03:55.978Z,2.95
2022-11-08T21:06:24.891Z,2.25
2022-11-08T21:09:04.773Z,2.45
2022-11-08T21:14:04.082Z,1.95
2022-11-08T21:16:42.363Z,2.80
2022-11-08T21:19:14.824Z,1.45
2022-11-08T21:21:46.006Z,1.00
2022-11-08T21:24:13.659Z,1.55
2022-11-08T21:26:40.663Z,1.25
2022-11-08T21:29:07.642Z,1.92
2022-11-08T21:31:34.641Z,1.60
2022-11-08T21:34:01.611Z,1.10
2022-11-08T21:36:29.102Z,0.90
2022-11-08T21:38:56.257Z,2.03
2022-11-08T21:41:23.288Z,1.38
2022-11-08T21:43:50.333Z,2.88
2022-11-08T21:46:23.006Z,2.97
2022-11-08T21:51:21.281Z,1.35
2022-11-08T21:53:54.840Z,1.40
2022-11-08T21:56:24.604Z,0.90
2022-11-08T21:58:51.961Z,1.45
2022-11-08T22:01:23.064Z,1.52
2022-11-08T22:03:52.620Z,1.20
2022-11-08T22:06:21.495Z,1.42
2022-11-08T22:08:49.040Z,1.27
2022-11-08T22:11:16.047Z,1.20
2022-11-08T22:13:43.047Z,0.80
2022-11-08T22:16:10.093Z,0.95
2022-11-08T22:21:42.942Z,0.75
2022-11-08T22:24:16.976Z,0.88
2022-11-08T22:26:44.683Z,0.88
2022-11-08T22:29:11.953Z,1.10
2022-11-08T22:31:39.278Z,1.38
2022-11-08T22:34:08.404Z,0.60
2022-11-08T22:36:39.811Z,1.10
2022-11-08T22:39:12.638Z,0.90
2022-11-08T22:41:39.640Z,0.90
2022-11-08T22:44:11.754Z,1.02
2022-11-08T22:46:41.149Z,0.85
2022-11-08T22:49:08.873Z,0.82
2022-11-08T22:51:35.954Z,1.63
2022-11-08T22:54:03.202Z,1.42
2022-11-08T22:56:31.830Z,1.25
2022-11-08T22:58:58.822Z,1.05
2022-11-08T23:01:25.847Z,1.63
2022-11-08T23:03:52.995Z,1.15
2022-11-08T23:06:21.386Z,0.70
2022-11-08T23:08:48.569Z,1.10
2022-11-08T23:11:34.426Z,1.27
2022-11-08T23:14:20.038Z,1.00
2022-11-08T23:16:47.127Z,1.25
2022-11-08T23:19:35.087Z,1.17
2022-11-08T23:22:23.590Z,1.00
2022-11-08T23:24:50.695Z,0.93
2022-11-08T23:27:37.842Z,1.33
2022-11-08T23:30:25.280Z,1.00
2022-11-08T23:32:52.366Z,1.85
2022-11-08T23:35:20.913Z,1.23
2022-11-08T23:37:48.415Z,1.33
2022-11-08T23:40:35.655Z,1.50
2022-11-08T23:43:22.199Z,1.20
2022-11-08T23:45:49.403Z,1.08
2022-11-08T23:48:16.590Z,1.25
2022-11-08T23:51:01.699Z,1.00
2022-11-08T23:53:29.454Z,1.10
2022-11-08T23:55:56.954Z,0.82
2022-11-08T23:58:24.688Z,1.30
